sensor_id;sensor_type;location;lat;lon;timestamp;temperature;humidity
6379;DHT22;3222;48.858;10.128;2024-03-06T00:01:47;6.10;99.90
6379;DHT22;3222;48.858;10.128;2024-03-06T00:04:13;6.10;99.90
6379;DHT22;3222;48.858;10.128;2024-03-06T00:06:39;6.10;99.90
6379;DHT22;3222;48.858;10.128;2024-03-06T00:09:04;6.10;99.90
6379;DHT22;3222;48.858;10.128;2024-03-06T00:11:30;6.00;99.90
6379;DHT22;3222;48.858;10.128;2024-03-06T00:13:56;6.00;99.90
6379;DHT22;3222;48.858;10.128;2024-03-06T00:16:21;6.00;99.90
6379;DHT22;3222;48.858;10.128;2024-03-06T00:18:47;6.10;99.90
6379;DHT22;3222;48.858;10.128;2024-03-06T00:21:13;6.00;99.90
6379;DHT22;3222;48.858;10.128;2024-03-06T00:23:38;6.00;99.90
6379;DHT22;3222;48.858;10.128;2024-03-06T00:26:04;6.00;99.90
6379;DHT22;3222;48.858;10.128;2024-03-06T00:28:30;6.00;99.90
6379;DHT22;3222;48.858;10.128;2024-03-06T00:30:56;6.00;99.90
6379;DHT22;3222;48.858;10.128;2024-03-06T00:33:22;6.00;99.90
6379;DHT22;3222;48.858;10.128;2024-03-06T00:35:48;6.10;99.90
6379;DHT22;3222;48.858;10.128;2024-03-06T00:38:14;6.10;99.90
6379;DHT22;3222;48.858;10.128;2024-03-06T00:40:40;6.10;99.90
6379;DHT22;3222;48.858;10.128;2024-03-06T00:43:05;6.10;99.90
6379;DHT22;3222;48.858;10.128;2024-03-06T00:45:31;6.10;99.90
6379;DHT22;3222;48.858;10.128;2024-03-06T00:47:57;6.10;99.90
6379;DHT22;3222;48.858;10.128;2024-03-06T00:50:23;6.20;99.90
6379;DHT22;3222;48.858;10.128;2024-03-06T00:52:49;6.20;99.90
6379;DHT22;3222;48.858;10.128;2024-03-06T00:55:15;6.10;99.90
6379;DHT22;3222;48.858;10.128;2024-03-06T00:57:41;6.10;99.90
6379;DHT22;3222;48.858;10.128;2024-03-06T01:00:07;6.00;99.90
6379;DHT22;3222;48.858;10.128;2024-03-06T01:02:39;6.10;99.90
6379;DHT22;3222;48.858;10.128;2024-03-06T01:05:06;6.20;99.90
6379;DHT22;3222;48.858;10.128;2024-03-06T01:07:33;6.10;99.90
6379;DHT22;3222;48.858;10.128;2024-03-06T01:10:00;6.10;99.90
6379;DHT22;3222;48.858;10.128;2024-03-06T01:12:27;6.10;99.90
6379;DHT22;3222;48.858;10.128;2024-03-06T01:14:52;6.10;99.90
6379;DHT22;3222;48.858;10.128;2024-03-06T01:17:18;6.10;99.90
6379;DHT22;3222;48.858;10.128;2024-03-06T01:19:44;6.00;99.90
6379;DHT22;3222;48.858;10.128;2024-03-06T01:22:10;6.20;99.90
6379;DHT22;3222;48.858;10.128;2024-03-06T01:24:36;6.20;99.90
6379;DHT22;3222;48.858;10.128;2024-03-06T01:27:01;6.30;99.90
6379;DHT22;3222;48.858;10.128;2024-03-06T01:29:31;6.30;99.90
6379;DHT22;3222;48.858;10.128;2024-03-06T01:31:58;6.30;99.90
6379;DHT22;3222;48.858;10.128;2024-03-06T01:34:24;6.30;99.90
6379;DHT22;3222;48.858;10.128;2024-03-06T01:36:50;6.20;99.90
6379;DHT22;3222;48.858;10.128;2024-03-06T01:39:16;6.20;99.90
6379;DHT22;3222;48.858;10.128;2024-03-06T01:41:46;6.20;99.90
6379;DHT22;3222;48.858;10.128;2024-03-06T01:44:12;6.20;99.90
6379;DHT22;3222;48.858;10.128;2024-03-06T01:46:38;6.20;99.90
6379;DHT22;3222;48.858;10.128;2024-03-06T01:49:04;6.20;99.90
6379;DHT22;3222;48.858;10.128;2024-03-06T01:51:30;6.20;99.90
6379;DHT22;3222;48.858;10.128;2024-03-06T01:53:57;6.30;99.90
6379;DHT22;3222;48.858;10.128;2024-03-06T01:56:23;6.30;99.90
6379;DHT22;3222;48.858;10.128;2024-03-06T01:58:49;6.20;99.90
6379;DHT22;3222;48.858;10.128;2024-03-06T02:01:16;6.20;99.90
6379;DHT22;3222;48.858;10.128;2024-03-06T02:03:43;6.20;99.90
6379;DHT22;3222;48.858;10.128;2024-03-06T02:06:10;6.20;99.90
6379;DHT22;3222;48.858;10.128;2024-03-06T02:08:37;6.10;99.90
6379;DHT22;3222;48.858;10.128;2024-03-06T02:11:03;6.10;99.90
6379;DHT22;3222;48.858;10.128;2024-03-06T02:13:29;6.20;99.90
6379;DHT22;3222;48.858;10.128;2024-03-06T02:15:54;6.20;99.90
6379;DHT22;3222;48.858;10.128;2024-03-06T02:18:20;6.20;99.90
6379;DHT22;3222;48.858;10.128;2024-03-06T02:20:46;6.20;99.90
6379;DHT22;3222;48.858;10.128;2024-03-06T02:23:12;6.10;99.90
6379;DHT22;3222;48.858;10.128;2024-03-06T02:25:40;6.20;99.90
6379;DHT22;3222;48.858;10.128;2024-03-06T02:28:06;6.20;99.90
6379;DHT22;3222;48.858;10.128;2024-03-06T02:30:32;6.20;99.90
6379;DHT22;3222;48.858;10.128;2024-03-06T02:33:05;6.20;99.90
6379;DHT22;3222;48.858;10.128;2024-03-06T02:35:37;6.20;99.90
6379;DHT22;3222;48.858;10.128;2024-03-06T02:38:05;6.20;99.90
6379;DHT22;3222;48.858;10.128;2024-03-06T02:40:32;6.30;99.90
6379;DHT22;3222;48.858;10.128;2024-03-06T02:42:57;6.20;99.90
6379;DHT22;3222;48.858;10.128;2024-03-06T02:45:23;6.20;99.90
6379;DHT22;3222;48.858;10.128;2024-03-06T02:47:49;6.20;99.90
6379;DHT22;3222;48.858;10.128;2024-03-06T02:50:15;6.10;99.90
6379;DHT22;3222;48.858;10.128;2024-03-06T02:52:41;6.10;99.90
6379;DHT22;3222;48.858;10.128;2024-03-06T02:55:07;6.10;99.90
6379;DHT22;3222;48.858;10.128;2024-03-06T02:57:33;6.10;99.90
6379;DHT22;3222;48.858;10.128;2024-03-06T02:59:59;6.10;99.90
6379;DHT22;3222;48.858;10.128;2024-03-06T03:02:25;6.00;99.90
6379;DHT22;3222;48.858;10.128;2024-03-06T03:04:51;6.00;99.90
6379;DHT22;3222;48.858;10.128;2024-03-06T03:07:20;5.90;99.90
6379;DHT22;3222;48.858;10.128;2024-03-06T03:09:46;5.90;99.90
6379;DHT22;3222;48.858;10.128;2024-03-06T03:12:13;6.00;99.90
6379;DHT22;3222;48.858;10.128;2024-03-06T03:14:42;6.00;99.90
6379;DHT22;3222;48.858;10.128;2024-03-06T03:17:08;6.10;99.90
6379;DHT22;3222;48.858;10.128;2024-03-06T03:19:34;6.10;99.90
6379;DHT22;3222;48.858;10.128;2024-03-06T03:22:00;6.10;99.90
6379;DHT22;3222;48.858;10.128;2024-03-06T03:24:30;6.10;99.90
6379;DHT22;3222;48.858;10.128;2024-03-06T03:26:55;6.10;99.90
6379;DHT22;3222;48.858;10.128;2024-03-06T03:29:21;6.10;99.90
6379;DHT22;3222;48.858;10.128;2024-03-06T03:31:47;6.00;99.90
6379;DHT22;3222;48.858;10.128;2024-03-06T03:34:13;6.00;99.90
6379;DHT22;3222;48.858;10.128;2024-03-06T03:36:43;6.00;99.90
6379;DHT22;3222;48.858;10.128;2024-03-06T03:39:11;6.00;99.90
6379;DHT22;3222;48.858;10.128;2024-03-06T03:41:44;6.00;99.90
6379;DHT22;3222;48.858;10.128;2024-03-06T03:44:12;6.00;99.90
6379;DHT22;3222;48.858;10.128;2024-03-06T03:46:38;6.00;99.90
6379;DHT22;3222;48.858;10.128;2024-03-06T03:49:04;6.00;99.90
6379;DHT22;3222;48.858;10.128;2024-03-06T03:51:30;6.00;99.90
6379;DHT22;3222;48.858;10.128;2024-03-06T03:53:55;6.00;99.90
6379;DHT22;3222;48.858;10.128;2024-03-06T03:56:21;6.00;99.90
6379;DHT22;3222;48.858;10.128;2024-03-06T03:58:47;6.00;99.90
6379;DHT22;3222;48.858;10.128;2024-03-06T04:01:13;6.10;99.90
6379;DHT22;3222;48.858;10.128;2024-03-06T04:03:38;6.00;99.90
6379;DHT22;3222;48.858;10.128;2024-03-06T04:06:06;5.90;99.90
6379;DHT22;3222;48.858;10.128;2024-03-06T04:08:32;5.90;99.90
6379;DHT22;3222;48.858;10.128;2024-03-06T04:10:58;5.80;99.90
6379;DHT22;3222;48.858;10.128;2024-03-06T04:13:24;5.80;99.90
6379;DHT22;3222;48.858;10.128;2024-03-06T04:15:49;5.80;99.90
6379;DHT22;3222;48.858;10.128;2024-03-06T04:18:15;5.80;99.90
6379;DHT22;3222;48.858;10.128;2024-03-06T04:20:41;5.80;99.90
6379;DHT22;3222;48.858;10.128;2024-03-06T04:23:06;5.80;99.90
6379;DHT22;3222;48.858;10.128;2024-03-06T04:25:33;5.90;99.90
6379;DHT22;3222;48.858;10.128;2024-03-06T04:27:58;5.90;99.90
6379;DHT22;3222;48.858;10.128;2024-03-06T04:30:24;5.90;99.90
6379;DHT22;3222;48.858;10.128;2024-03-06T04:32:50;5.90;99.90
6379;DHT22;3222;48.858;10.128;2024-03-06T04:35:16;5.90;99.90
6379;DHT22;3222;48.858;10.128;2024-03-06T04:37:41;5.90;99.90
6379;DHT22;3222;48.858;10.128;2024-03-06T04:40:08;5.90;99.90
6379;DHT22;3222;48.858;10.128;2024-03-06T04:42:37;5.90;99.90
6379;DHT22;3222;48.858;10.128;2024-03-06T04:45:11;5.80;99.90
6379;DHT22;3222;48.858;10.128;2024-03-06T04:47:38;5.80;99.90
6379;DHT22;3222;48.858;10.128;2024-03-06T04:50:07;5.80;99.90
6379;DHT22;3222;48.858;10.128;2024-03-06T04:52:34;5.70;99.90
6379;DHT22;3222;48.858;10.128;2024-03-06T04:55:00;5.80;99.90
6379;DHT22;3222;48.858;10.128;2024-03-06T04:57:26;5.80;99.90
6379;DHT22;3222;48.858;10.128;2024-03-06T04:59:52;5.90;99.90
6379;DHT22;3222;48.858;10.128;2024-03-06T05:02:17;5.90;99.90
6379;DHT22;3222;48.858;10.128;2024-03-06T05:04:43;5.90;99.90
6379;DHT22;3222;48.858;10.128;2024-03-06T05:07:09;5.90;99.90
6379;DHT22;3222;48.858;10.128;2024-03-06T05:09:35;5.90;99.90
6379;DHT22;3222;48.858;10.128;2024-03-06T05:12:01;5.80;99.90
6379;DHT22;3222;48.858;10.128;2024-03-06T05:14:26;5.80;99.90
6379;DHT22;3222;48.858;10.128;2024-03-06T05:16:52;5.70;99.90
6379;DHT22;3222;48.858;10.128;2024-03-06T05:19:18;5.80;99.90
6379;DHT22;3222;48.858;10.128;2024-03-06T05:21:45;5.80;99.90
6379;DHT22;3222;48.858;10.128;2024-03-06T05:24:11;5.80;99.90
6379;DHT22;3222;48.858;10.128;2024-03-06T05:26:37;5.70;99.90
6379;DHT22;3222;48.858;10.128;2024-03-06T05:29:02;5.80;99.90
6379;DHT22;3222;48.858;10.128;2024-03-06T05:31:28;5.70;99.90
6379;DHT22;3222;48.858;10.128;2024-03-06T05:33:54;5.70;99.90
6379;DHT22;3222;48.858;10.128;2024-03-06T05:36:20;5.70;99.90
6379;DHT22;3222;48.858;10.128;2024-03-06T05:38:45;5.70;99.90
6379;DHT22;3222;48.858;10.128;2024-03-06T05:41:11;5.70;99.90
6379;DHT22;3222;48.858;10.128;2024-03-06T05:43:37;5.70;99.90
6379;DHT22;3222;48.858;10.128;2024-03-06T05:46:03;5.70;99.90
6379;DHT22;3222;48.858;10.128;2024-03-06T05:48:30;5.70;99.90
6379;DHT22;3222;48.858;10.128;2024-03-06T05:50:55;5.70;99.90
6379;DHT22;3222;48.858;10.128;2024-03-06T05:53:21;5.70;99.90
6379;DHT22;3222;48.858;10.128;2024-03-06T05:55:47;5.70;99.90
6379;DHT22;3222;48.858;10.128;2024-03-06T05:58:12;5.70;99.90
6379;DHT22;3222;48.858;10.128;2024-03-06T06:00:38;5.70;99.90
6379;DHT22;3222;48.858;10.128;2024-03-06T06:03:05;5.70;99.90
6379;DHT22;3222;48.858;10.128;2024-03-06T06:05:30;5.70;99.90
6379;DHT22;3222;48.858;10.128;2024-03-06T06:07:56;5.70;99.90
6379;DHT22;3222;48.858;10.128;2024-03-06T06:10:22;5.70;99.90
6379;DHT22;3222;48.858;10.128;2024-03-06T06:12:47;5.60;99.90
6379;DHT22;3222;48.858;10.128;2024-03-06T06:15:13;5.70;99.90
6379;DHT22;3222;48.858;10.128;2024-03-06T06:17:39;5.70;99.90
6379;DHT22;3222;48.858;10.128;2024-03-06T06:20:08;5.70;99.90
6379;DHT22;3222;48.858;10.128;2024-03-06T06:22:39;5.70;99.90
6379;DHT22;3222;48.858;10.128;2024-03-06T06:25:05;5.70;99.90
6379;DHT22;3222;48.858;10.128;2024-03-06T06:27:33;5.70;99.90
6379;DHT22;3222;48.858;10.128;2024-03-06T06:29:58;5.60;99.90
6379;DHT22;3222;48.858;10.128;2024-03-06T06:32:24;5.60;99.90
6379;DHT22;3222;48.858;10.128;2024-03-06T06:34:50;5.60;99.90
6379;DHT22;3222;48.858;10.128;2024-03-06T06:37:17;5.60;99.90
6379;DHT22;3222;48.858;10.128;2024-03-06T06:39:45;5.70;99.90
6379;DHT22;3222;48.858;10.128;2024-03-06T06:42:11;5.70;99.90
6379;DHT22;3222;48.858;10.128;2024-03-06T06:44:36;5.70;99.90
6379;DHT22;3222;48.858;10.128;2024-03-06T06:47:02;5.70;99.90
6379;DHT22;3222;48.858;10.128;2024-03-06T06:49:28;5.70;99.90
6379;DHT22;3222;48.858;10.128;2024-03-06T06:51:54;5.60;99.90
6379;DHT22;3222;48.858;10.128;2024-03-06T06:54:19;5.80;99.90
6379;DHT22;3222;48.858;10.128;2024-03-06T06:56:45;5.70;99.90
6379;DHT22;3222;48.858;10.128;2024-03-06T06:59:11;5.60;99.90
6379;DHT22;3222;48.858;10.128;2024-03-06T07:01:39;5.60;99.90
6379;DHT22;3222;48.858;10.128;2024-03-06T07:04:06;5.60;99.90
6379;DHT22;3222;48.858;10.128;2024-03-06T07:06:32;5.60;99.90
6379;DHT22;3222;48.858;10.128;2024-03-06T07:08:57;5.60;99.90
6379;DHT22;3222;48.858;10.128;2024-03-06T07:11:23;5.60;99.90
6379;DHT22;3222;48.858;10.128;2024-03-06T07:13:49;5.60;99.90
6379;DHT22;3222;48.858;10.128;2024-03-06T07:16:15;5.60;99.90
6379;DHT22;3222;48.858;10.128;2024-03-06T07:18:41;5.60;99.90
6379;DHT22;3222;48.858;10.128;2024-03-06T07:21:06;5.60;99.90
6379;DHT22;3222;48.858;10.128;2024-03-06T07:23:32;5.60;99.90
6379;DHT22;3222;48.858;10.128;2024-03-06T07:25:59;5.60;99.90
6379;DHT22;3222;48.858;10.128;2024-03-06T07:28:25;5.60;99.90
6379;DHT22;3222;48.858;10.128;2024-03-06T07:30:51;5.60;99.90
6379;DHT22;3222;48.858;10.128;2024-03-06T07:33:17;5.60;99.90
6379;DHT22;3222;48.858;10.128;2024-03-06T07:35:43;5.60;99.90
6379;DHT22;3222;48.858;10.128;2024-03-06T07:38:09;5.50;99.90
6379;DHT22;3222;48.858;10.128;2024-03-06T07:40:35;5.60;99.90
6379;DHT22;3222;48.858;10.128;2024-03-06T07:43:01;5.60;99.90
6379;DHT22;3222;48.858;10.128;2024-03-06T07:45:26;5.60;99.90
6379;DHT22;3222;48.858;10.128;2024-03-06T07:47:53;5.60;99.90
6379;DHT22;3222;48.858;10.128;2024-03-06T07:50:18;5.60;99.90
6379;DHT22;3222;48.858;10.128;2024-03-06T07:52:47;5.60;99.90
6379;DHT22;3222;48.858;10.128;2024-03-06T07:55:13;5.60;99.90
6379;DHT22;3222;48.858;10.128;2024-03-06T07:57:39;5.50;99.90
6379;DHT22;3222;48.858;10.128;2024-03-06T08:00:06;5.50;99.90
6379;DHT22;3222;48.858;10.128;2024-03-06T08:02:42;5.60;99.90
6379;DHT22;3222;48.858;10.128;2024-03-06T08:05:15;5.60;99.90
6379;DHT22;3222;48.858;10.128;2024-03-06T08:07:41;5.60;99.90
6379;DHT22;3222;48.858;10.128;2024-03-06T08:10:11;5.60;99.90
6379;DHT22;3222;48.858;10.128;2024-03-06T08:12:43;5.60;99.90
6379;DHT22;3222;48.858;10.128;2024-03-06T08:15:13;5.60;99.90
6379;DHT22;3222;48.858;10.128;2024-03-06T08:17:40;5.60;99.90
6379;DHT22;3222;48.858;10.128;2024-03-06T08:20:08;5.60;99.90
6379;DHT22;3222;48.858;10.128;2024-03-06T08:22:41;5.60;99.90
6379;DHT22;3222;48.858;10.128;2024-03-06T08:25:08;5.60;99.90
6379;DHT22;3222;48.858;10.128;2024-03-06T08:27:35;5.60;99.90
6379;DHT22;3222;48.858;10.128;2024-03-06T08:30:05;5.60;99.90
6379;DHT22;3222;48.858;10.128;2024-03-06T08:32:35;5.60;99.90
6379;DHT22;3222;48.858;10.128;2024-03-06T08:35:05;5.60;99.90
6379;DHT22;3222;48.858;10.128;2024-03-06T08:37:32;5.60;99.90
6379;DHT22;3222;48.858;10.128;2024-03-06T08:39:59;5.60;99.90
6379;DHT22;3222;48.858;10.128;2024-03-06T08:42:25;5.60;99.90
6379;DHT22;3222;48.858;10.128;2024-03-06T08:44:51;5.60;99.90
6379;DHT22;3222;48.858;10.128;2024-03-06T08:47:16;5.60;99.90
6379;DHT22;3222;48.858;10.128;2024-03-06T08:49:42;5.60;99.90
6379;DHT22;3222;48.858;10.128;2024-03-06T08:52:08;5.60;99.90
6379;DHT22;3222;48.858;10.128;2024-03-06T08:54:36;5.60;99.90
6379;DHT22;3222;48.858;10.128;2024-03-06T08:57:02;5.60;99.90
6379;DHT22;3222;48.858;10.128;2024-03-06T08:59:29;5.60;99.90
6379;DHT22;3222;48.858;10.128;2024-03-06T09:01:55;5.70;99.90
6379;DHT22;3222;48.858;10.128;2024-03-06T09:04:25;5.60;99.90
6379;DHT22;3222;48.858;10.128;2024-03-06T09:06:51;5.70;99.90
6379;DHT22;3222;48.858;10.128;2024-03-06T09:09:17;5.70;99.90
6379;DHT22;3222;48.858;10.128;2024-03-06T09:11:42;5.70;99.90
6379;DHT22;3222;48.858;10.128;2024-03-06T09:14:08;5.70;99.90
6379;DHT22;3222;48.858;10.128;2024-03-06T09:16:36;5.70;99.90
6379;DHT22;3222;48.858;10.128;2024-03-06T09:19:02;5.70;99.90
6379;DHT22;3222;48.858;10.128;2024-03-06T09:21:28;5.70;99.90
6379;DHT22;3222;48.858;10.128;2024-03-06T09:23:54;5.70;99.90
6379;DHT22;3222;48.858;10.128;2024-03-06T09:26:19;5.70;99.90
6379;DHT22;3222;48.858;10.128;2024-03-06T09:28:46;5.70;99.90
6379;DHT22;3222;48.858;10.128;2024-03-06T09:31:12;5.80;99.90
6379;DHT22;3222;48.858;10.128;2024-03-06T09:33:41;5.80;99.90
6379;DHT22;3222;48.858;10.128;2024-03-06T09:36:10;5.80;99.90
6379;DHT22;3222;48.858;10.128;2024-03-06T09:38:36;5.80;99.90
6379;DHT22;3222;48.858;10.128;2024-03-06T09:41:03;5.80;99.90
6379;DHT22;3222;48.858;10.128;2024-03-06T09:43:29;5.90;99.90
6379;DHT22;3222;48.858;10.128;2024-03-06T09:45:56;5.80;99.90
6379;DHT22;3222;48.858;10.128;2024-03-06T09:48:22;5.90;99.90
6379;DHT22;3222;48.858;10.128;2024-03-06T09:50:49;6.00;99.90
6379;DHT22;3222;48.858;10.128;2024-03-06T09:53:18;5.90;99.90
6379;DHT22;3222;48.858;10.128;2024-03-06T09:55:46;5.90;99.90
6379;DHT22;3222;48.858;10.128;2024-03-06T09:58:12;5.90;99.90
6379;DHT22;3222;48.858;10.128;2024-03-06T10:00:38;5.90;99.90
6379;DHT22;3222;48.858;10.128;2024-03-06T10:03:04;5.90;99.90
6379;DHT22;3222;48.858;10.128;2024-03-06T10:05:34;6.00;99.90
6379;DHT22;3222;48.858;10.128;2024-03-06T10:08:04;6.00;99.90
6379;DHT22;3222;48.858;10.128;2024-03-06T10:10:30;6.00;99.90
6379;DHT22;3222;48.858;10.128;2024-03-06T10:12:56;5.90;99.90
6379;DHT22;3222;48.858;10.128;2024-03-06T10:15:28;6.00;99.90
6379;DHT22;3222;48.858;10.128;2024-03-06T10:18:16;5.90;99.90
6379;DHT22;3222;48.858;10.128;2024-03-06T10:20:44;5.90;99.90
6379;DHT22;3222;48.858;10.128;2024-03-06T10:23:09;5.90;99.90
6379;DHT22;3222;48.858;10.128;2024-03-06T10:25:35;5.90;99.90
6379;DHT22;3222;48.858;10.128;2024-03-06T10:28:09;5.90;99.90
6379;DHT22;3222;48.858;10.128;2024-03-06T10:30:40;6.00;99.90
6379;DHT22;3222;48.858;10.128;2024-03-06T10:33:09;5.90;99.90
6379;DHT22;3222;48.858;10.128;2024-03-06T10:35:36;5.90;99.90
6379;DHT22;3222;48.858;10.128;2024-03-06T10:38:04;6.00;99.90
6379;DHT22;3222;48.858;10.128;2024-03-06T10:40:38;5.90;99.90
6379;DHT22;3222;48.858;10.128;2024-03-06T10:43:05;5.90;99.90
6379;DHT22;3222;48.858;10.128;2024-03-06T10:45:50;5.90;99.90
6379;DHT22;3222;48.858;10.128;2024-03-06T10:48:18;5.90;99.90
6379;DHT22;3222;48.858;10.128;2024-03-06T10:50:45;5.90;99.90
6379;DHT22;3222;48.858;10.128;2024-03-06T10:53:13;5.90;99.90
6379;DHT22;3222;48.858;10.128;2024-03-06T10:55:40;6.00;99.90
6379;DHT22;3222;48.858;10.128;2024-03-06T10:58:07;6.00;99.90
6379;DHT22;3222;48.858;10.128;2024-03-06T11:00:41;6.00;99.90
6379;DHT22;3222;48.858;10.128;2024-03-06T11:03:08;6.00;99.90
6379;DHT22;3222;48.858;10.128;2024-03-06T11:05:38;6.00;99.90
6379;DHT22;3222;48.858;10.128;2024-03-06T11:08:11;5.90;99.90
6379;DHT22;3222;48.858;10.128;2024-03-06T11:10:38;6.00;99.90
6379;DHT22;3222;48.858;10.128;2024-03-06T11:15:50;5.90;99.90
6379;DHT22;3222;48.858;10.128;2024-03-06T11:23:28;6.10;99.90
6379;DHT22;3222;48.858;10.128;2024-03-06T11:28:20;6.00;99.90
6379;DHT22;3222;48.858;10.128;2024-03-06T11:31:00;6.10;99.90
6379;DHT22;3222;48.858;10.128;2024-03-06T11:33:39;6.10;99.90
6379;DHT22;3222;48.858;10.128;2024-03-06T11:38:41;6.10;99.90
6379;DHT22;3222;48.858;10.128;2024-03-06T11:41:06;6.00;99.90
6379;DHT22;3222;48.858;10.128;2024-03-06T11:43:42;6.00;99.90
6379;DHT22;3222;48.858;10.128;2024-03-06T11:46:11;6.00;99.90
6379;DHT22;3222;48.858;10.128;2024-03-06T11:48:38;6.00;99.90
6379;DHT22;3222;48.858;10.128;2024-03-06T11:51:04;6.10;99.90
6379;DHT22;3222;48.858;10.128;2024-03-06T11:53:30;6.10;99.90
6379;DHT22;3222;48.858;10.128;2024-03-06T11:55:56;6.20;99.90
6379;DHT22;3222;48.858;10.128;2024-03-06T11:58:22;6.20;99.90
6379;DHT22;3222;48.858;10.128;2024-03-06T12:00:48;6.30;99.90
6379;DHT22;3222;48.858;10.128;2024-03-06T12:03:14;6.20;99.90
6379;DHT22;3222;48.858;10.128;2024-03-06T12:05:39;6.30;99.90
6379;DHT22;3222;48.858;10.128;2024-03-06T12:08:06;6.10;99.90
6379;DHT22;3222;48.858;10.128;2024-03-06T12:10:37;6.20;99.90
6379;DHT22;3222;48.858;10.128;2024-03-06T12:13:03;6.20;99.90
6379;DHT22;3222;48.858;10.128;2024-03-06T12:15:29;6.10;99.90
6379;DHT22;3222;48.858;10.128;2024-03-06T12:17:55;6.30;99.90
6379;DHT22;3222;48.858;10.128;2024-03-06T12:20:20;6.30;99.90
6379;DHT22;3222;48.858;10.128;2024-03-06T12:22:53;6.20;99.90
6379;DHT22;3222;48.858;10.128;2024-03-06T12:25:20;6.20;99.90
6379;DHT22;3222;48.858;10.128;2024-03-06T12:27:47;6.30;99.90
6379;DHT22;3222;48.858;10.128;2024-03-06T12:30:16;6.40;99.90
6379;DHT22;3222;48.858;10.128;2024-03-06T12:32:44;6.50;99.90
6379;DHT22;3222;48.858;10.128;2024-03-06T12:35:10;6.50;99.90
6379;DHT22;3222;48.858;10.128;2024-03-06T12:37:36;6.50;99.90
6379;DHT22;3222;48.858;10.128;2024-03-06T12:40:03;6.40;99.90
6379;DHT22;3222;48.858;10.128;2024-03-06T12:42:30;6.30;99.90
6379;DHT22;3222;48.858;10.128;2024-03-06T12:44:56;6.30;99.90
6379;DHT22;3222;48.858;10.128;2024-03-06T12:47:22;6.40;99.90
6379;DHT22;3222;48.858;10.128;2024-03-06T12:49:48;6.40;99.90
6379;DHT22;3222;48.858;10.128;2024-03-06T12:52:14;6.50;99.90
6379;DHT22;3222;48.858;10.128;2024-03-06T12:54:39;6.30;99.90
6379;DHT22;3222;48.858;10.128;2024-03-06T12:57:05;6.50;99.90
6379;DHT22;3222;48.858;10.128;2024-03-06T12:59:31;6.50;99.90
6379;DHT22;3222;48.858;10.128;2024-03-06T13:01:56;6.40;99.90
6379;DHT22;3222;48.858;10.128;2024-03-06T13:04:22;6.40;99.90
6379;DHT22;3222;48.858;10.128;2024-03-06T13:06:48;6.30;99.90
6379;DHT22;3222;48.858;10.128;2024-03-06T13:09:14;6.30;99.90
6379;DHT22;3222;48.858;10.128;2024-03-06T13:11:40;6.30;99.90
6379;DHT22;3222;48.858;10.128;2024-03-06T13:14:07;6.40;99.90
6379;DHT22;3222;48.858;10.128;2024-03-06T13:16:35;6.50;99.90
6379;DHT22;3222;48.858;10.128;2024-03-06T13:19:01;6.50;99.90
6379;DHT22;3222;48.858;10.128;2024-03-06T13:21:29;6.40;99.90
6379;DHT22;3222;48.858;10.128;2024-03-06T13:23:54;6.50;99.90
6379;DHT22;3222;48.858;10.128;2024-03-06T13:26:20;6.40;99.90
6379;DHT22;3222;48.858;10.128;2024-03-06T13:28:46;6.40;99.90
6379;DHT22;3222;48.858;10.128;2024-03-06T13:31:12;6.40;99.90
6379;DHT22;3222;48.858;10.128;2024-03-06T13:33:38;6.30;99.90
6379;DHT22;3222;48.858;10.128;2024-03-06T13:36:03;6.30;99.90
6379;DHT22;3222;48.858;10.128;2024-03-06T13:38:29;6.30;99.90
6379;DHT22;3222;48.858;10.128;2024-03-06T13:40:55;6.40;99.90
6379;DHT22;3222;48.858;10.128;2024-03-06T13:43:20;6.40;99.90
6379;DHT22;3222;48.858;10.128;2024-03-06T13:45:52;6.40;99.90
6379;DHT22;3222;48.858;10.128;2024-03-06T13:48:18;6.50;99.90
6379;DHT22;3222;48.858;10.128;2024-03-06T13:50:45;6.70;99.90
6379;DHT22;3222;48.858;10.128;2024-03-06T13:53:11;6.60;99.90
6379;DHT22;3222;48.858;10.128;2024-03-06T13:55:37;6.60;99.90
6379;DHT22;3222;48.858;10.128;2024-03-06T13:58:03;6.60;99.90
6379;DHT22;3222;48.858;10.128;2024-03-06T14:00:30;6.60;99.90
6379;DHT22;3222;48.858;10.128;2024-03-06T14:02:55;6.60;99.90
6379;DHT22;3222;48.858;10.128;2024-03-06T14:05:21;6.60;99.90
6379;DHT22;3222;48.858;10.128;2024-03-06T14:07:53;6.60;99.90
6379;DHT22;3222;48.858;10.128;2024-03-06T14:10:21;6.60;99.90
6379;DHT22;3222;48.858;10.128;2024-03-06T14:12:48;6.50;99.90
6379;DHT22;3222;48.858;10.128;2024-03-06T14:15:18;6.60;99.90
6379;DHT22;3222;48.858;10.128;2024-03-06T14:17:44;6.50;99.90
6379;DHT22;3222;48.858;10.128;2024-03-06T14:20:11;6.70;99.90
6379;DHT22;3222;48.858;10.128;2024-03-06T14:22:41;6.60;99.90
6379;DHT22;3222;48.858;10.128;2024-03-06T14:25:08;6.70;99.90
6379;DHT22;3222;48.858;10.128;2024-03-06T14:27:33;6.70;99.90
6379;DHT22;3222;48.858;10.128;2024-03-06T14:30:01;6.70;99.90
6379;DHT22;3222;48.858;10.128;2024-03-06T14:32:27;6.70;99.90
6379;DHT22;3222;48.858;10.128;2024-03-06T14:34:53;6.70;99.90
6379;DHT22;3222;48.858;10.128;2024-03-06T14:37:19;6.60;99.90
6379;DHT22;3222;48.858;10.128;2024-03-06T14:39:45;6.70;99.90
6379;DHT22;3222;48.858;10.128;2024-03-06T14:42:11;6.70;99.90
6379;DHT22;3222;48.858;10.128;2024-03-06T14:44:37;6.80;99.90
6379;DHT22;3222;48.858;10.128;2024-03-06T14:47:02;6.80;99.90
6379;DHT22;3222;48.858;10.128;2024-03-06T14:49:28;6.70;99.90
6379;DHT22;3222;48.858;10.128;2024-03-06T14:51:54;6.70;99.90
6379;DHT22;3222;48.858;10.128;2024-03-06T14:54:21;6.70;99.90
6379;DHT22;3222;48.858;10.128;2024-03-06T14:56:48;6.80;99.90
6379;DHT22;3222;48.858;10.128;2024-03-06T14:59:14;6.80;99.90
6379;DHT22;3222;48.858;10.128;2024-03-06T15:01:40;6.70;99.90
6379;DHT22;3222;48.858;10.128;2024-03-06T15:04:05;6.80;99.90
6379;DHT22;3222;48.858;10.128;2024-03-06T15:06:31;6.70;99.90
6379;DHT22;3222;48.858;10.128;2024-03-06T15:08:57;6.70;99.90
6379;DHT22;3222;48.858;10.128;2024-03-06T15:11:22;6.70;99.90
6379;DHT22;3222;48.858;10.128;2024-03-06T15:13:49;7.00;99.90
6379;DHT22;3222;48.858;10.128;2024-03-06T15:16:16;6.90;99.90
6379;DHT22;3222;48.858;10.128;2024-03-06T15:18:43;6.80;99.90
6379;DHT22;3222;48.858;10.128;2024-03-06T15:21:09;6.70;99.90
6379;DHT22;3222;48.858;10.128;2024-03-06T15:23:35;6.80;99.90
6379;DHT22;3222;48.858;10.128;2024-03-06T15:26:01;6.70;99.90
6379;DHT22;3222;48.858;10.128;2024-03-06T15:28:26;6.80;99.90
6379;DHT22;3222;48.858;10.128;2024-03-06T15:30:52;6.80;99.90
6379;DHT22;3222;48.858;10.128;2024-03-06T15:33:18;6.70;99.90
6379;DHT22;3222;48.858;10.128;2024-03-06T15:35:44;6.70;99.90
6379;DHT22;3222;48.858;10.128;2024-03-06T15:38:10;6.80;99.90
6379;DHT22;3222;48.858;10.128;2024-03-06T15:40:36;6.80;99.90
6379;DHT22;3222;48.858;10.128;2024-03-06T15:43:02;6.90;99.90
6379;DHT22;3222;48.858;10.128;2024-03-06T15:45:28;6.90;99.90
6379;DHT22;3222;48.858;10.128;2024-03-06T15:47:54;6.80;99.90
6379;DHT22;3222;48.858;10.128;2024-03-06T15:50:20;6.80;99.90
6379;DHT22;3222;48.858;10.128;2024-03-06T15:52:45;6.70;99.90
6379;DHT22;3222;48.858;10.128;2024-03-06T15:55:11;6.80;99.90
6379;DHT22;3222;48.858;10.128;2024-03-06T15:57:37;6.70;99.90
6379;DHT22;3222;48.858;10.128;2024-03-06T16:00:06;6.90;99.90
6379;DHT22;3222;48.858;10.128;2024-03-06T16:02:36;6.80;99.90
6379;DHT22;3222;48.858;10.128;2024-03-06T16:05:02;6.80;99.90
6379;DHT22;3222;48.858;10.128;2024-03-06T16:07:28;6.90;99.90
6379;DHT22;3222;48.858;10.128;2024-03-06T16:09:54;6.80;99.90
6379;DHT22;3222;48.858;10.128;2024-03-06T16:12:19;6.80;99.90